Time;durP1;ratioP1;P1;durP2;ratioP2;P2;SDS_P1;SDS_P2;PMS_P1;PMS_P2;Temp;Humidity;BMP_temperature;BMP_pressure;BME280_temperature;BME280_humidity;BME280_pressure;Samples;Min_cycle;Max_cycle;Signal;HPM_P1;HPM_P2
2022/10/15 00:01:44;;;;;;;38.97;24.42;;;;;;;;;;5040826;28;20608;-61
2022/10/15 00:04:10;;;;;;;45.03;26.10;;;;;;;;;;5039234;28;20057;-62
2022/10/15 00:06:37;;;;;;;41.38;24.40;;;;;;;;;;5037649;28;20062;-62
2022/10/15 00:09:03;;;;;;;37.35;24.65;;;;;;;;;;5031019;28;20057;-62
2022/10/15 00:11:30;;;;;;;34.97;23.67;;;;;;;;;;5041728;28;20539;-61
2022/10/15 00:13:58;;;;;;;41.10;25.23;;;;;;;;;;5049825;28;20061;-62
2022/10/15 00:16:26;;;;;;;37.63;24.08;;;;;;;;;;5027774;28;20057;-62
2022/10/15 00:18:54;;;;;;;41.13;25.42;;;;;;;;;;5039849;28;20052;-62
2022/10/15 00:21:21;;;;;;;45.53;25.10;;;;;;;;;;5029323;28;20598;-61
2022/10/15 00:23:47;;;;;;;40.25;26.40;;;;;;;;;;5031382;28;20053;-62
2022/10/15 00:26:18;;;;;;;40.22;25.85;;;;;;;;;;5021634;28;20054;-62
2022/10/15 00:28:44;;;;;;;40.70;25.45;;;;;;;;;;5038485;28;20112;-61
2022/10/15 00:31:12;;;;;;;40.17;26.88;;;;;;;;;;5024765;28;20077;-61
2022/10/15 00:33:39;;;;;;;44.17;26.23;;;;;;;;;;5033905;28;20072;-61
2022/10/15 00:36:07;;;;;;;44.88;27.25;;;;;;;;;;5027237;28;20061;-62
2022/10/15 00:38:34;;;;;;;49.70;28.27;;;;;;;;;;5032982;28;20052;-62
2022/10/15 00:41:01;;;;;;;48.55;27.73;;;;;;;;;;5043506;28;20049;-62
2022/10/15 00:43:44;;;;;;;43.10;26.15;;;;;;;;;;5032280;28;20144;-63
2022/10/15 00:46:37;;;;;;;48.75;27.75;;;;;;;;;;5042768;28;20076;-62
2022/10/15 00:49:03;;;;;;;45.08;26.42;;;;;;;;;;5041988;28;20050;-61
2022/10/15 00:51:32;;;;;;;45.30;28.63;;;;;;;;;;5025431;28;20511;-62
2022/10/15 00:53:59;;;;;;;51.13;28.20;;;;;;;;;;5037998;28;20841;-61
2022/10/15 00:56:26;;;;;;;49.42;29.27;;;;;;;;;;5055224;28;20049;-61
2022/10/15 00:58:53;;;;;;;45.58;27.83;;;;;;;;;;5043626;28;20065;-62
2022/10/15 01:01:20;;;;;;;43.25;26.27;;;;;;;;;;5032008;28;20076;-61
2022/10/15 01:03:46;;;;;;;44.92;26.80;;;;;;;;;;5042495;28;20132;-62
2022/10/15 01:06:12;;;;;;;49.75;29.25;;;;;;;;;;5043328;28;20054;-62
2022/10/15 01:08:39;;;;;;;50.15;28.88;;;;;;;;;;5042026;28;20056;-61
2022/10/15 01:11:11;;;;;;;46.78;29.50;;;;;;;;;;5046375;28;20048;-62
2022/10/15 01:13:50;;;;;;;52.20;29.92;;;;;;;;;;5035864;28;20057;-61
2022/10/15 01:16:18;;;;;;;54.65;30.58;;;;;;;;;;5057777;28;20305;-62
2022/10/15 01:18:49;;;;;;;47.95;29.13;;;;;;;;;;5032084;28;20148;-61
2022/10/15 01:21:20;;;;;;;51.03;30.48;;;;;;;;;;5043796;28;20526;-62
2022/10/15 01:23:56;;;;;;;53.65;29.85;;;;;;;;;;5041468;28;20141;-61
2022/10/15 01:26:40;;;;;;;52.85;30.85;;;;;;;;;;5044367;28;20057;-62
2022/10/15 01:29:26;;;;;;;52.95;29.35;;;;;;;;;;5026186;28;20108;-61
2022/10/15 01:32:11;;;;;;;58.20;29.83;;;;;;;;;;5043077;28;20466;-61
2022/10/15 01:34:51;;;;;;;47.78;29.50;;;;;;;;;;5041325;28;20412;-62
2022/10/15 01:37:44;;;;;;;48.30;29.00;;;;;;;;;;5024406;28;20050;-62
2022/10/15 01:40:13;;;;;;;59.03;30.33;;;;;;;;;;5024535;28;20795;-62
2022/10/15 01:42:59;;;;;;;54.28;29.33;;;;;;;;;;5043416;28;20046;-62
2022/10/15 01:45:32;;;;;;;56.92;31.05;;;;;;;;;;5034994;28;20057;-62
2022/10/15 01:48:02;;;;;;;53.53;29.13;;;;;;;;;;5036643;28;20045;-61
2022/10/15 01:50:29;;;;;;;63.03;31.23;;;;;;;;;;5024449;28;20508;-62
2022/10/15 01:52:57;;;;;;;58.08;30.23;;;;;;;;;;5041348;28;20049;-62
2022/10/15 01:55:24;;;;;;;57.38;31.55;;;;;;;;;;5023941;28;20058;-62
2022/10/15 01:57:52;;;;;;;55.65;30.67;;;;;;;;;;5026342;28;20061;-61
2022/10/15 02:00:19;;;;;;;56.08;30.65;;;;;;;;;;5030911;28;20558;-62
2022/10/15 02:02:45;;;;;;;58.17;30.90;;;;;;;;;;5040970;28;20075;-61
2022/10/15 02:05:15;;;;;;;54.13;31.42;;;;;;;;;;5045790;28;20187;-61
2022/10/15 02:07:53;;;;;;;58.20;31.73;;;;;;;;;;5033447;28;20176;-61
2022/10/15 02:10:27;;;;;;;62.78;31.73;;;;;;;;;;5043259;28;20046;-62
2022/10/15 02:12:57;;;;;;;61.85;32.63;;;;;;;;;;5050116;28;20072;-62
2022/10/15 02:15:31;;;;;;;52.00;30.83;;;;;;;;;;5026243;28;20186;-62
2022/10/15 02:17:58;;;;;;;57.80;32.67;;;;;;;;;;5023877;28;20504;-62
2022/10/15 02:20:29;;;;;;;61.05;31.70;;;;;;;;;;5043341;28;20267;-61
2022/10/15 02:22:59;;;;;;;71.10;33.75;;;;;;;;;;5040247;28;20089;-62
2022/10/15 02:25:27;;;;;;;56.20;31.33;;;;;;;;;;5038704;28;20068;-62
2022/10/15 02:27:54;;;;;;;63.15;31.58;;;;;;;;;;5029929;28;20061;-62
2022/10/15 02:30:22;;;;;;;67.75;32.92;;;;;;;;;;5038136;28;20056;-61
2022/10/15 02:32:52;;;;;;;66.88;33.45;;;;;;;;;;5027534;28;20049;-61
2022/10/15 02:35:20;;;;;;;65.25;33.55;;;;;;;;;;5043615;28;20470;-61
2022/10/15 02:37:48;;;;;;;63.78;32.38;;;;;;;;;;5043963;28;20050;-62
2022/10/15 02:40:15;;;;;;;58.33;32.70;;;;;;;;;;5041870;28;20065;-61
2022/10/15 02:42:41;;;;;;;61.72;32.65;;;;;;;;;;5035994;28;20058;-62
2022/10/15 02:45:08;;;;;;;63.10;33.13;;;;;;;;;;5022665;28;20064;-62
2022/10/15 02:47:34;;;;;;;63.35;32.08;;;;;;;;;;5024847;28;20573;-61
2022/10/15 02:50:01;;;;;;;61.95;32.58;;;;;;;;;;5024998;28;20972;-61
2022/10/15 02:52:27;;;;;;;67.47;32.88;;;;;;;;;;5038527;28;20713;-62
2022/10/15 02:54:53;;;;;;;59.97;32.28;;;;;;;;;;5031694;28;20061;-62
2022/10/15 02:57:20;;;;;;;63.63;34.45;;;;;;;;;;5040001;28;20053;-62
2022/10/15 02:59:47;;;;;;;62.45;32.78;;;;;;;;;;5025582;28;20119;-62
2022/10/15 03:02:13;;;;;;;65.80;34.67;;;;;;;;;;5038787;28;20061;-62
2022/10/15 03:04:44;;;;;;;62.90;33.08;;;;;;;;;;5035186;28;20527;-61
2022/10/15 03:07:10;;;;;;;60.15;33.50;;;;;;;;;;5051840;28;20053;-61
2022/10/15 03:09:36;;;;;;;58.63;32.88;;;;;;;;;;5044012;28;20503;-62
2022/10/15 03:12:03;;;;;;;58.22;32.60;;;;;;;;;;5042091;28;20065;-62
2022/10/15 03:14:30;;;;;;;62.10;34.40;;;;;;;;;;5041802;28;20062;-62
2022/10/15 03:16:56;;;;;;;64.28;32.42;;;;;;;;;;5043687;28;20227;-61
2022/10/15 03:19:23;;;;;;;58.67;31.23;;;;;;;;;;5028009;28;20049;-62
2022/10/15 03:21:49;;;;;;;56.97;31.92;;;;;;;;;;5043221;28;20061;-61
2022/10/15 03:24:15;;;;;;;55.42;30.38;;;;;;;;;;5040008;28;20063;-61
2022/10/15 03:26:41;;;;;;;61.40;34.70;;;;;;;;;;5045220;28;20049;-61
2022/10/15 03:29:08;;;;;;;56.88;31.77;;;;;;;;;;5058969;28;20557;-61
2022/10/15 03:31:34;;;;;;;57.58;30.73;;;;;;;;;;5060469;28;20057;-62
2022/10/15 03:34:00;;;;;;;55.88;32.33;;;;;;;;;;5037245;28;20505;-61
2022/10/15 03:36:27;;;;;;;56.75;30.15;;;;;;;;;;5023584;28;20057;-62
2022/10/15 03:38:53;;;;;;;53.60;31.10;;;;;;;;;;5040196;28;20606;-62
2022/10/15 03:41:20;;;;;;;57.72;31.35;;;;;;;;;;5044716;28;20046;-61
2022/10/15 03:43:46;;;;;;;60.03;32.10;;;;;;;;;;5042262;28;20085;-61
2022/10/15 03:46:12;;;;;;;56.75;31.45;;;;;;;;;;5031234;28;20057;-63
2022/10/15 03:48:39;;;;;;;62.55;31.50;;;;;;;;;;5040235;28;20049;-63
2022/10/15 03:51:05;;;;;;;57.80;31.10;;;;;;;;;;5041305;28;20049;-64
2022/10/15 03:53:31;;;;;;;56.65;31.38;;;;;;;;;;5040759;28;20135;-62
2022/10/15 03:56:04;;;;;;;58.60;31.70;;;;;;;;;;5037426;28;20042;-63
2022/10/15 03:58:31;;;;;;;61.00;31.10;;;;;;;;;;5032450;28;20521;-62
2022/10/15 04:00:57;;;;;;;61.70;31.50;;;;;;;;;;5040974;28;20460;-63
2022/10/15 04:03:23;;;;;;;53.47;30.63;;;;;;;;;;5036344;28;20161;-62
2022/10/15 04:05:51;;;;;;;52.67;30.08;;;;;;;;;;5042019;28;20087;-63
2022/10/15 04:08:20;;;;;;;59.55;30.95;;;;;;;;;;5052854;28;20075;-63
2022/10/15 04:10:47;;;;;;;57.97;31.88;;;;;;;;;;5048759;28;20049;-63
2022/10/15 04:13:13;;;;;;;66.68;31.30;;;;;;;;;;5034534;28;20059;-62
2022/10/15 04:15:39;;;;;;;52.17;31.00;;;;;;;;;;5022201;28;20088;-62
2022/10/15 04:18:05;;;;;;;53.83;30.05;;;;;;;;;;5033926;28;20052;-63
2022/10/15 04:20:32;;;;;;;47.67;29.05;;;;;;;;;;5044072;28;20056;-62
2022/10/15 04:22:58;;;;;;;52.40;30.13;;;;;;;;;;5037805;28;20049;-62
2022/10/15 04:25:24;;;;;;;56.85;29.83;;;;;;;;;;5026225;28;20047;-62
2022/10/15 04:27:52;;;;;;;53.17;30.98;;;;;;;;;;5038095;28;20062;-63
2022/10/15 04:30:18;;;;;;;53.38;30.73;;;;;;;;;;5022237;28;20428;-62
2022/10/15 04:32:45;;;;;;;55.20;31.58;;;;;;;;;;5024540;28;20053;-62
2022/10/15 04:35:11;;;;;;;54.55;31.08;;;;;;;;;;5041159;28;20057;-62
2022/10/15 04:37:37;;;;;;;62.40;32.63;;;;;;;;;;5038944;28;20508;-61
2022/10/15 04:40:04;;;;;;;50.58;29.92;;;;;;;;;;5055409;28;20084;-63
2022/10/15 04:42:30;;;;;;;52.72;31.55;;;;;;;;;;5040309;28;20049;-63
2022/10/15 04:44:57;;;;;;;57.15;31.45;;;;;;;;;;5022450;28;20049;-63
2022/10/15 04:47:23;;;;;;;58.55;30.85;;;;;;;;;;5032692;28;20057;-62
2022/10/15 04:49:50;;;;;;;59.58;33.42;;;;;;;;;;5039806;28;20143;-63
2022/10/15 04:52:16;;;;;;;57.47;33.95;;;;;;;;;;5039716;28;20045;-62
2022/10/15 04:54:42;;;;;;;58.40;32.47;;;;;;;;;;5047836;28;20049;-62
2022/10/15 04:57:09;;;;;;;58.58;32.20;;;;;;;;;;5039929;28;20061;-62
2022/10/15 04:59:35;;;;;;;58.63;33.40;;;;;;;;;;5049583;28;20499;-62
2022/10/15 05:02:01;;;;;;;53.50;32.20;;;;;;;;;;5045363;28;20053;-62
2022/10/15 05:04:28;;;;;;;58.53;34.35;;;;;;;;;;5040395;28;20049;-62
2022/10/15 05:06:54;;;;;;;54.42;32.67;;;;;;;;;;5033905;28;20444;-62
2022/10/15 05:09:20;;;;;;;58.60;33.28;;;;;;;;;;5046315;28;20056;-62
2022/10/15 05:11:47;;;;;;;58.10;33.90;;;;;;;;;;5047105;28;20783;-62
2022/10/15 05:14:14;;;;;;;63.03;34.38;;;;;;;;;;5045267;28;20507;-63
2022/10/15 05:16:40;;;;;;;64.88;34.55;;;;;;;;;;5060031;28;20992;-62
2022/10/15 05:19:07;;;;;;;64.38;36.30;;;;;;;;;;5036865;28;20053;-63
2022/10/15 05:21:34;;;;;;;57.00;32.13;;;;;;;;;;5042171;28;20045;-62
2022/10/15 05:24:00;;;;;;;56.05;32.85;;;;;;;;;;5030283;28;20048;-62
2022/10/15 05:26:28;;;;;;;53.92;33.70;;;;;;;;;;5040214;28;20084;-62
2022/10/15 05:28:55;;;;;;;56.45;33.83;;;;;;;;;;5038226;28;20625;-62
2022/10/15 05:31:23;;;;;;;57.67;34.75;;;;;;;;;;5040184;28;22049;-62
2022/10/15 05:33:50;;;;;;;58.75;35.10;;;;;;;;;;5038284;28;20556;-63
2022/10/15 05:36:18;;;;;;;58.85;35.78;;;;;;;;;;5036565;28;20050;-61
2022/10/15 05:38:45;;;;;;;74.95;38.85;;;;;;;;;;5041090;28;20052;-62
2022/10/15 05:41:11;;;;;;;72.63;39.65;;;;;;;;;;5039869;28;20084;-63
2022/10/15 05:43:38;;;;;;;75.38;40.25;;;;;;;;;;5044646;28;20046;-62
2022/10/15 05:46:07;;;;;;;87.55;43.05;;;;;;;;;;5043727;28;20168;-62
2022/10/15 05:48:33;;;;;;;88.30;42.90;;;;;;;;;;5038270;28;20061;-61
2022/10/15 05:51:01;;;;;;;89.80;41.42;;;;;;;;;;5064971;28;20060;-62
2022/10/15 05:53:27;;;;;;;104.97;45.30;;;;;;;;;;5064759;28;20431;-63
2022/10/15 05:55:54;;;;;;;102.05;42.90;;;;;;;;;;5043525;28;20550;-62
2022/10/15 05:58:20;;;;;;;111.40;43.67;;;;;;;;;;5043822;28;20060;-63
2022/10/15 06:00:53;;;;;;;107.80;43.25;;;;;;;;;;5056658;28;20107;-62
2022/10/15 06:03:20;;;;;;;107.60;42.45;;;;;;;;;;5053337;28;20092;-63
2022/10/15 06:05:47;;;;;;;109.43;40.85;;;;;;;;;;5044485;28;20049;-62
2022/10/15 06:08:13;;;;;;;103.90;40.53;;;;;;;;;;5042082;28;20045;-62
2022/10/15 06:10:40;;;;;;;107.38;42.95;;;;;;;;;;5053683;28;20057;-62
2022/10/15 06:13:06;;;;;;;105.25;42.97;;;;;;;;;;5037845;28;20061;-62
2022/10/15 06:15:32;;;;;;;99.75;41.42;;;;;;;;;;5042304;28;20053;-62
2022/10/15 06:17:59;;;;;;;89.95;38.90;;;;;;;;;;5022104;28;20057;-62
2022/10/15 06:20:27;;;;;;;96.72;40.47;;;;;;;;;;5034672;28;20131;-61
2022/10/15 06:22:57;;;;;;;100.88;41.38;;;;;;;;;;5045790;28;20054;-62
2022/10/15 06:25:24;;;;;;;103.55;39.67;;;;;;;;;;5042524;28;20058;-62
2022/10/15 06:27:50;;;;;;;101.03;38.30;;;;;;;;;;5042955;28;20050;-63
2022/10/15 06:30:17;;;;;;;100.45;38.78;;;;;;;;;;5036807;28;20053;-62
2022/10/15 06:32:47;;;;;;;97.72;38.28;;;;;;;;;;5040421;28;20421;-62
2022/10/15 06:35:13;;;;;;;95.78;35.95;;;;;;;;;;5042806;28;20053;-61
2022/10/15 06:37:39;;;;;;;85.45;34.70;;;;;;;;;;5031930;28;20054;-61
2022/10/15 06:40:06;;;;;;;94.75;35.50;;;;;;;;;;5042958;28;20127;-61
2022/10/15 06:42:32;;;;;;;89.88;35.92;;;;;;;;;;5042842;28;20046;-60
2022/10/15 06:44:58;;;;;;;105.50;36.08;;;;;;;;;;5033152;28;20061;-61
2022/10/15 06:47:25;;;;;;;99.18;34.22;;;;;;;;;;5040325;28;20050;-62
2022/10/15 06:49:52;;;;;;;95.75;34.78;;;;;;;;;;5025903;28;20081;-61
2022/10/15 06:52:19;;;;;;;103.68;34.92;;;;;;;;;;5047920;28;20531;-62
2022/10/15 06:54:46;;;;;;;96.15;34.80;;;;;;;;;;5043500;28;20060;-62
2022/10/15 06:57:12;;;;;;;104.63;34.80;;;;;;;;;;5040085;28;20061;-61
2022/10/15 06:59:38;;;;;;;100.63;35.03;;;;;;;;;;5039634;28;20522;-61
2022/10/15 07:02:10;;;;;;;105.28;34.17;;;;;;;;;;5045958;28;20104;-62
2022/10/15 07:04:36;;;;;;;99.95;32.10;;;;;;;;;;5054208;28;20084;-61
2022/10/15 07:07:03;;;;;;;112.97;35.78;;;;;;;;;;5039961;28;20569;-62
2022/10/15 07:09:29;;;;;;;93.43;32.00;;;;;;;;;;5039889;28;20132;-61
2022/10/15 07:11:55;;;;;;;90.93;32.88;;;;;;;;;;5040699;28;20057;-61
2022/10/15 07:14:22;;;;;;;93.95;32.45;;;;;;;;;;5024960;28;20050;-61
2022/10/15 07:16:49;;;;;;;97.05;34.55;;;;;;;;;;5060796;28;20053;-61
2022/10/15 07:19:15;;;;;;;89.03;33.28;;;;;;;;;;5040048;28;20514;-61
2022/10/15 07:21:42;;;;;;;90.38;32.83;;;;;;;;;;5027639;28;20053;-61
2022/10/15 07:24:08;;;;;;;84.25;32.50;;;;;;;;;;5037389;28;20495;-61
2022/10/15 07:26:34;;;;;;;85.43;29.35;;;;;;;;;;5043888;28;20463;-61
2022/10/15 07:29:01;;;;;;;81.75;29.42;;;;;;;;;;5023153;28;20802;-61
2022/10/15 07:31:27;;;;;;;80.10;29.85;;;;;;;;;;5023369;28;20099;-61
2022/10/15 07:33:53;;;;;;;71.13;28.15;;;;;;;;;;5041002;28;20045;-61
2022/10/15 07:36:20;;;;;;;73.47;26.80;;;;;;;;;;5048187;28;20053;-62
2022/10/15 07:38:46;;;;;;;72.93;29.23;;;;;;;;;;5028587;28;20054;-61
2022/10/15 07:41:13;;;;;;;74.32;27.25;;;;;;;;;;5047492;28;20053;-62
2022/10/15 07:43:39;;;;;;;71.75;27.85;;;;;;;;;;5025863;28;20053;-62
2022/10/15 07:46:05;;;;;;;70.90;27.58;;;;;;;;;;5053973;28;20057;-64
2022/10/15 07:48:32;;;;;;;65.93;26.63;;;;;;;;;;5047871;28;20060;-63
2022/10/15 07:50:59;;;;;;;66.47;27.15;;;;;;;;;;5058060;28;20049;-63
2022/10/15 07:53:26;;;;;;;67.32;26.30;;;;;;;;;;5035822;28;20077;-63
2022/10/15 07:55:52;;;;;;;55.90;24.23;;;;;;;;;;5038431;28;20050;-63
2022/10/15 07:58:19;;;;;;;58.78;24.15;;;;;;;;;;5026730;28;20505;-64
2022/10/15 08:00:45;;;;;;;55.05;24.25;;;;;;;;;;5024856;28;20053;-63
2022/10/15 08:03:11;;;;;;;56.95;24.02;;;;;;;;;;5033118;28;20057;-63
2022/10/15 08:05:38;;;;;;;51.60;24.00;;;;;;;;;;5047916;28;20533;-63
2022/10/15 08:08:04;;;;;;;51.47;23.00;;;;;;;;;;5040897;28;20046;-63
2022/10/15 08:10:30;;;;;;;49.92;23.85;;;;;;;;;;5040138;28;20060;-63
2022/10/15 08:12:56;;;;;;;47.90;21.67;;;;;;;;;;5030833;28;20042;-62
2022/10/15 08:15:23;;;;;;;47.10;22.15;;;;;;;;;;5040390;28;20057;-62
2022/10/15 08:17:50;;;;;;;45.85;21.58;;;;;;;;;;5040648;28;20057;-63
2022/10/15 08:20:16;;;;;;;44.90;20.73;;;;;;;;;;5041579;28;20061;-62
2022/10/15 08:22:43;;;;;;;41.80;19.83;;;;;;;;;;5029243;28;20133;-61
2022/10/15 08:25:09;;;;;;;36.83;18.17;;;;;;;;;;5036040;28;20052;-62
2022/10/15 08:27:36;;;;;;;41.33;21.33;;;;;;;;;;5032799;28;20042;-61
2022/10/15 08:30:03;;;;;;;39.83;18.48;;;;;;;;;;5024894;28;20045;-61
2022/10/15 08:32:29;;;;;;;36.78;18.15;;;;;;;;;;5039297;28;20053;-61
2022/10/15 08:34:55;;;;;;;36.58;17.63;;;;;;;;;;5035375;28;20054;-63
2022/10/15 08:37:21;;;;;;;34.83;17.40;;;;;;;;;;5021569;28;20053;-62
2022/10/15 08:39:48;;;;;;;30.27;16.85;;;;;;;;;;5022277;28;20069;-61
2022/10/15 08:42:20;;;;;;;36.20;18.50;;;;;;;;;;5036418;28;20664;-61
2022/10/15 08:44:50;;;;;;;30.33;16.70;;;;;;;;;;5038264;28;20575;-61
2022/10/15 08:47:29;;;;;;;29.83;15.35;;;;;;;;;;5023234;28;20435;-61
2022/10/15 08:49:58;;;;;;;26.42;15.20;;;;;;;;;;5031706;28;20061;-61
2022/10/15 08:52:47;;;;;;;34.05;17.38;;;;;;;;;;5040546;28;20065;-62
2022/10/15 08:55:15;;;;;;;33.25;16.98;;;;;;;;;;5041572;28;20427;-61
2022/10/15 08:57:56;;;;;;;31.38;16.48;;;;;;;;;;5038666;28;20149;-61
2022/10/15 09:00:24;;;;;;;30.70;16.23;;;;;;;;;;5043699;28;20060;-62
2022/10/15 09:03:04;;;;;;;28.60;15.88;;;;;;;;;;5039228;28;20487;-62
2022/10/15 09:05:51;;;;;;;29.30;16.85;;;;;;;;;;5032285;28;20630;-64
2022/10/15 09:08:26;;;;;;;28.25;15.18;;;;;;;;;;5026770;28;20058;-65
2022/10/15 09:10:56;;;;;;;25.67;15.15;;;;;;;;;;5044196;28;20057;-64
2022/10/15 09:13:39;;;;;;;26.98;15.75;;;;;;;;;;5042676;28;20057;-64
2022/10/15 09:16:16;;;;;;;27.08;15.75;;;;;;;;;;5038249;28;20165;-64
2022/10/15 09:18:44;;;;;;;25.63;15.63;;;;;;;;;;5027432;28;20049;-64
2022/10/15 09:21:12;;;;;;;26.45;15.90;;;;;;;;;;5027979;28;20226;-64
2022/10/15 09:23:40;;;;;;;27.90;14.68;;;;;;;;;;5037937;28;20514;-64
2022/10/15 09:26:25;;;;;;;22.33;14.15;;;;;;;;;;5044318;28;20045;-64
2022/10/15 09:29:04;;;;;;;25.27;14.00;;;;;;;;;;5024879;28;20472;-64
2022/10/15 09:32:00;;;;;;;21.63;14.32;;;;;;;;;;5024305;28;20616;-64
2022/10/15 09:34:33;;;;;;;26.42;14.48;;;;;;;;;;5047899;28;20140;-64
2022/10/15 09:37:04;;;;;;;24.27;14.80;;;;;;;;;;5059577;28;20518;-64
2022/10/15 09:39:42;;;;;;;23.65;14.43;;;;;;;;;;5058966;28;21749;-63
2022/10/15 09:42:29;;;;;;;24.95;14.68;;;;;;;;;;5055748;28;20514;-64
2022/10/15 09:44:57;;;;;;;25.88;15.73;;;;;;;;;;5059100;28;20056;-64
2022/10/15 09:47:25;;;;;;;24.63;15.15;;;;;;;;;;5059871;28;20051;-64
2022/10/15 09:49:52;;;;;;;27.30;16.02;;;;;;;;;;5041235;28;20050;-64
2022/10/15 09:52:24;;;;;;;24.73;15.38;;;;;;;;;;5052941;28;20049;-64
2022/10/15 09:55:00;;;;;;;25.25;16.63;;;;;;;;;;5061224;28;20052;-64
2022/10/15 09:57:28;;;;;;;26.27;16.48;;;;;;;;;;5047043;28;20056;-64
2022/10/15 09:59:55;;;;;;;24.83;16.65;;;;;;;;;;5049209;28;20483;-65
2022/10/15 10:02:23;;;;;;;25.70;16.48;;;;;;;;;;5060501;28;20061;-63
2022/10/15 10:04:50;;;;;;;27.67;17.77;;;;;;;;;;5061211;28;20045;-64
2022/10/15 10:07:33;;;;;;;26.27;16.85;;;;;;;;;;5040934;28;20057;-64
2022/10/15 10:10:20;;;;;;;21.58;14.93;;;;;;;;;;5047397;28;20208;-64
2022/10/15 10:12:47;;;;;;;34.92;17.45;;;;;;;;;;5039215;28;20042;-65
2022/10/15 10:15:27;;;;;;;32.42;17.48;;;;;;;;;;5025927;28;20061;-65
2022/10/15 10:17:54;;;;;;;47.53;21.92;;;;;;;;;;5048477;28;20350;-62
2022/10/15 10:20:28;;;;;;;33.80;19.23;;;;;;;;;;5046036;28;20176;-61
2022/10/15 10:22:55;;;;;;;38.28;18.95;;;;;;;;;;5052593;28;20053;-61
2022/10/15 10:25:33;;;;;;;38.17;19.40;;;;;;;;;;5029742;28;20052;-62
2022/10/15 10:28:04;;;;;;;31.33;18.33;;;;;;;;;;5030371;28;20521;-62
2022/10/15 10:30:35;;;;;;;32.15;17.40;;;;;;;;;;5032825;28;20056;-61
2022/10/15 10:33:02;;;;;;;29.08;17.17;;;;;;;;;;5042197;28;20050;-62
2022/10/15 10:35:34;;;;;;;30.48;16.27;;;;;;;;;;5043019;28;20046;-62
2022/10/15 10:38:00;;;;;;;33.13;17.15;;;;;;;;;;5040998;28;20049;-62
2022/10/15 10:40:28;;;;;;;32.38;16.60;;;;;;;;;;5045582;28;20529;-62
2022/10/15 10:43:18;;;;;;;29.70;16.15;;;;;;;;;;5029472;28;20060;-63
2022/10/15 10:45:51;;;;;;;26.60;14.45;;;;;;;;;;5034869;28;20056;-61
2022/10/15 10:48:19;;;;;;;26.58;14.63;;;;;;;;;;5036592;28;20054;-61
2022/10/15 10:50:45;;;;;;;30.20;15.38;;;;;;;;;;5043112;28;20056;-61
2022/10/15 10:53:23;;;;;;;35.28;15.45;;;;;;;;;;5031463;28;20553;-62
2022/10/15 10:55:50;;;;;;;31.95;15.48;;;;;;;;;;5026652;28;20169;-62
2022/10/15 10:58:19;;;;;;;26.00;12.65;;;;;;;;;;5030092;28;20539;-61
2022/10/15 11:00:52;;;;;;;26.20;11.93;;;;;;;;;;5027728;28;20068;-63
2022/10/15 11:03:34;;;;;;;23.75;11.25;;;;;;;;;;5032295;28;20057;-62
2022/10/15 11:06:03;;;;;;;25.45;10.68;;;;;;;;;;5032063;28;20515;-62
2022/10/15 11:09:05;;;;;;;20.02;10.20;;;;;;;;;;5030866;28;20057;-62
2022/10/15 11:11:40;;;;;;;23.30;10.23;;;;;;;;;;5039774;28;20057;-62
2022/10/15 11:14:16;;;;;;;23.67;11.70;;;;;;;;;;5040704;28;20049;-62
2022/10/15 11:17:14;;;;;;;21.02;9.48;;;;;;;;;;5043653;28;20087;-62
2022/10/15 11:19:46;;;;;;;16.65;9.52;;;;;;;;;;5002262;28;20049;-62
2022/10/15 11:22:39;;;;;;;19.63;9.35;;;;;;;;;;5040509;28;20106;-62
2022/10/15 11:25:27;;;;;;;22.08;11.13;;;;;;;;;;5039982;28;20101;-61
2022/10/15 11:27:53;;;;;;;17.17;9.10;;;;;;;;;;5044001;28;20050;-61
2022/10/15 11:30:38;;;;;;;19.15;9.70;;;;;;;;;;5039473;28;20115;-61
2022/10/15 11:33:23;;;;;;;18.42;8.15;;;;;;;;;;5039978;28;20064;-62
2022/10/15 11:35:58;;;;;;;18.10;8.93;;;;;;;;;;5051027;28;20519;-61
2022/10/15 11:38:36;;;;;;;18.38;8.48;;;;;;;;;;5038586;28;20064;-62
2022/10/15 11:41:03;;;;;;;16.55;8.43;;;;;;;;;;5045541;28;20046;-61
2022/10/15 11:43:40;;;;;;;17.05;8.23;;;;;;;;;;5048493;28;20056;-61
2022/10/15 11:46:25;;;;;;;15.15;8.13;;;;;;;;;;5046943;28;20569;-61
2022/10/15 11:49:12;;;;;;;14.57;7.43;;;;;;;;;;5042204;28;20517;-61
2022/10/15 11:51:39;;;;;;;16.60;8.23;;;;;;;;;;5043756;28;20049;-62
2022/10/15 11:54:18;;;;;;;14.88;8.10;;;;;;;;;;5061511;28;20442;-61
2022/10/15 11:56:47;;;;;;;14.18;8.10;;;;;;;;;;5051235;28;20795;-61
2022/10/15 11:59:22;;;;;;;15.35;8.80;;;;;;;;;;5039163;28;20053;-62
2022/10/15 12:01:50;;;;;;;14.55;7.68;;;;;;;;;;5042456;28;20115;-61
2022/10/15 12:04:25;;;;;;;14.75;7.13;;;;;;;;;;5040371;28;20450;-62
2022/10/15 12:06:59;;;;;;;14.43;7.68;;;;;;;;;;5041187;28;20502;-62
2022/10/15 12:09:38;;;;;;;11.13;6.15;;;;;;;;;;5051751;28;20050;-62
2022/10/15 12:12:24;;;;;;;11.05;6.35;;;;;;;;;;5029470;28;20550;-61
2022/10/15 12:14:58;;;;;;;10.73;6.63;;;;;;;;;;5027924;28;20334;-62
2022/10/15 12:17:33;;;;;;;11.95;7.10;;;;;;;;;;5021722;28;20058;-62
2022/10/15 12:20:04;;;;;;;9.80;6.05;;;;;;;;;;5036260;28;20428;-61
2022/10/15 12:22:32;;;;;;;13.52;7.55;;;;;;;;;;5059887;28;20525;-61
2022/10/15 12:25:00;;;;;;;11.18;7.15;;;;;;;;;;5061736;28;20053;-61
2022/10/15 12:27:29;;;;;;;9.60;6.60;;;;;;;;;;5046660;28;20055;-61
2022/10/15 12:29:58;;;;;;;8.65;6.30;;;;;;;;;;5052721;28;20529;-63
2022/10/15 12:32:41;;;;;;;8.88;5.97;;;;;;;;;;5037859;28;20060;-61
2022/10/15 12:35:18;;;;;;;7.45;5.75;;;;;;;;;;5028053;28;20054;-63
2022/10/15 12:37:46;;;;;;;8.85;6.10;;;;;;;;;;5038675;28;20053;-68
2022/10/15 12:40:22;;;;;;;7.60;5.72;;;;;;;;;;5040939;28;20491;-66
2022/10/15 12:42:53;;;;;;;7.82;6.40;;;;;;;;;;5045420;28;20061;-66
2022/10/15 12:45:20;;;;;;;8.63;6.15;;;;;;;;;;5045286;28;20499;-66
2022/10/15 12:47:48;;;;;;;9.52;6.50;;;;;;;;;;5045894;28;20580;-66
2022/10/15 12:50:18;;;;;;;9.13;6.85;;;;;;;;;;5024822;28;20170;-66
2022/10/15 12:52:45;;;;;;;9.60;7.13;;;;;;;;;;5025901;28;20049;-66
2022/10/15 12:55:20;;;;;;;10.50;7.68;;;;;;;;;;5044047;28;20585;-66
2022/10/15 12:57:46;;;;;;;12.05;7.82;;;;;;;;;;5045500;28;20125;-66
2022/10/15 13:00:27;;;;;;;10.05;7.88;;;;;;;;;;5045128;28;20057;-66
2022/10/15 13:02:54;;;;;;;15.18;8.73;;;;;;;;;;5045599;28;20054;-66
2022/10/15 13:05:34;;;;;;;12.60;8.02;;;;;;;;;;5044122;28;20045;-66
2022/10/15 13:08:01;;;;;;;9.88;7.20;;;;;;;;;;5033725;28;20057;-66
2022/10/15 13:10:29;;;;;;;10.60;7.68;;;;;;;;;;5040761;28;20049;-65
2022/10/15 13:12:57;;;;;;;13.57;8.75;;;;;;;;;;5040552;28;20814;-66
2022/10/15 13:15:25;;;;;;;12.43;7.03;;;;;;;;;;5043365;28;20060;-65
2022/10/15 13:17:53;;;;;;;10.20;6.20;;;;;;;;;;5042467;28;20624;-66
2022/10/15 13:20:36;;;;;;;8.20;6.13;;;;;;;;;;5044503;28;20057;-65
2022/10/15 13:23:06;;;;;;;7.57;5.68;;;;;;;;;;5043040;28;20644;-66
2022/10/15 13:26:12;;;;;;;10.48;6.20;;;;;;;;;;5045034;28;20089;-66
2022/10/15 13:28:40;;;;;;;7.35;5.78;;;;;;;;;;5041053;28;20056;-65
2022/10/15 13:31:23;;;;;;;9.43;6.70;;;;;;;;;;5042760;28;20050;-65
2022/10/15 13:34:18;;;;;;;8.73;6.47;;;;;;;;;;5044998;28;20061;-65
2022/10/15 13:36:45;;;;;;;9.43;6.95;;;;;;;;;;5039200;28;20057;-65
2022/10/15 13:39:30;;;;;;;7.70;6.20;;;;;;;;;;5042258;28;20049;-66
2022/10/15 13:42:06;;;;;;;7.35;6.55;;;;;;;;;;5044456;28;20139;-65
2022/10/15 13:44:32;;;;;;;8.60;6.57;;;;;;;;;;5043583;28;20049;-66
2022/10/15 13:46:58;;;;;;;8.13;6.22;;;;;;;;;;5042673;28;20462;-63
2022/10/15 13:49:25;;;;;;;9.35;6.95;;;;;;;;;;5044720;28;20639;-66
2022/10/15 13:51:54;;;;;;;8.00;6.88;;;;;;;;;;5042628;28;20055;-65
2022/10/15 13:54:22;;;;;;;10.98;7.70;;;;;;;;;;5043203;28;20069;-66
2022/10/15 13:56:51;;;;;;;9.73;7.43;;;;;;;;;;5044303;28;20053;-66
2022/10/15 13:59:19;;;;;;;10.20;7.38;;;;;;;;;;5041813;28;20542;-66
2022/10/15 14:01:51;;;;;;;8.95;6.68;;;;;;;;;;5045535;28;20049;-63
2022/10/15 14:04:18;;;;;;;10.00;7.45;;;;;;;;;;5045715;28;20854;-63
2022/10/15 14:06:58;;;;;;;9.25;7.80;;;;;;;;;;5026350;28;20046;-64
2022/10/15 14:09:38;;;;;;;10.55;7.47;;;;;;;;;;5039374;28;20141;-64
2022/10/15 14:12:06;;;;;;;9.48;7.15;;;;;;;;;;5041491;28;20137;-64
2022/10/15 14:14:38;;;;;;;8.68;6.95;;;;;;;;;;5043744;28;20178;-64
2022/10/15 14:17:05;;;;;;;7.88;6.22;;;;;;;;;;5043062;28;20686;-63
2022/10/15 14:19:33;;;;;;;9.63;6.80;;;;;;;;;;5043312;28;20053;-64
2022/10/15 14:22:00;;;;;;;7.13;6.43;;;;;;;;;;5042425;28;20108;-63
2022/10/15 14:24:26;;;;;;;9.32;6.18;;;;;;;;;;5056756;28;20048;-65
2022/10/15 14:26:52;;;;;;;7.10;5.97;;;;;;;;;;5042593;28;20050;-63
2022/10/15 14:29:24;;;;;;;6.25;5.10;;;;;;;;;;5039012;28;20572;-64
2022/10/15 14:31:51;;;;;;;5.30;4.80;;;;;;;;;;5045268;28;20056;-63
2022/10/15 14:34:29;;;;;;;6.30;4.68;;;;;;;;;;5064521;28;20380;-64
2022/10/15 14:36:56;;;;;;;6.05;4.35;;;;;;;;;;5043850;28;20481;-63
2022/10/15 14:39:30;;;;;;;6.22;3.90;;;;;;;;;;5056465;28;20510;-63